Time;durP1;ratioP1;P1;durP2;ratioP2;P2;SDS_P1;SDS_P2;PMS_P1;PMS_P2;Temp;Humidity;BMP_temperature;BMP_pressure;BME280_temperature;BME280_humidity;BME280_pressure;Samples;Min_cycle;Max_cycle;Signal;HPM_P1;HPM_P2
2022/08/27 00:00:18;;;;;;;5.93;2.70;;;;;;;18.36;66.64;101506.25;3587845;39;20394;-64
2022/08/27 00:02:44;;;;;;;3.90;2.40;;;;;;;18.31;66.81;101509.38;3590449;39;20310;-64
2022/08/27 00:05:13;;;;;;;4.00;2.28;;;;;;;18.21;67.55;101491.25;3588869;39;20067;-64
2022/08/27 00:07:41;;;;;;;5.00;2.20;;;;;;;18.16;67.06;101494.34;3588892;39;20124;-64
2022/08/27 00:10:13;;;;;;;5.65;2.53;;;;;;;18.16;67.73;101501.63;3586799;39;20327;-64
2022/08/27 00:12:40;;;;;;;5.00;2.30;;;;;;;18.13;67.30;101494.59;3589622;39;20600;-64
2022/08/27 00:15:07;;;;;;;5.00;2.50;;;;;;;18.11;68.07;101496.59;3590071;39;20055;-64
2022/08/27 00:17:34;;;;;;;5.93;2.40;;;;;;;18.09;68.36;101501.28;3588703;39;20056;-63
2022/08/27 00:20:01;;;;;;;6.53;2.90;;;;;;;17.99;68.28;101484.84;3588636;39;20052;-63
2022/08/27 00:22:27;;;;;;;7.53;2.55;;;;;;;18.03;68.48;101493.63;3588545;39;20072;-63
2022/08/27 00:24:52;;;;;;;6.78;2.53;;;;;;;17.96;67.97;101489.69;3588516;39;20089;-64
2022/08/27 00:27:18;;;;;;;7.10;2.33;;;;;;;17.95;69.14;101490.66;3589195;39;20060;-63
2022/08/27 00:29:45;;;;;;;5.55;2.15;;;;;;;17.95;68.95;101490.66;3590391;39;20067;-64
2022/08/27 00:32:11;;;;;;;5.68;2.47;;;;;;;17.91;69.17;101484.63;3588576;39;20318;-64
2022/08/27 00:34:37;;;;;;;3.92;2.47;;;;;;;17.89;69.17;101485.72;3586823;39;20308;-64
2022/08/27 00:37:05;;;;;;;4.85;2.72;;;;;;;17.85;68.99;101485.97;3589710;39;20051;-63
2022/08/27 00:39:32;;;;;;;2.60;2.33;;;;;;;17.84;69.55;101480.69;3588546;39;20088;-64
2022/08/27 00:41:59;;;;;;;5.82;2.80;;;;;;;17.79;69.31;101491.94;3589690;39;20051;-63
2022/08/27 00:44:26;;;;;;;8.70;2.80;;;;;;;17.72;70.22;101492.53;3586886;39;20059;-65
2022/08/27 00:47:01;;;;;;;5.60;2.90;;;;;;;17.67;69.93;101487.47;3593260;39;20044;-63
2022/08/27 00:49:40;;;;;;;4.35;2.47;;;;;;;17.63;70.52;101491.41;3589940;39;20060;-65
2022/08/27 00:52:15;;;;;;;6.03;3.15;;;;;;;17.58;70.59;101486.34;3588331;39;20088;-63
2022/08/27 00:54:41;;;;;;;6.88;2.92;;;;;;;17.54;70.62;101481.31;3589708;39;20138;-63
2022/08/27 00:57:07;;;;;;;6.13;3.03;;;;;;;17.47;70.89;101490.91;3590978;39;20051;-64
2022/08/27 00:59:33;;;;;;;4.05;3.10;;;;;;;17.43;71.35;101487.59;3590429;39;20393;-64
2022/08/27 01:02:18;;;;;;;8.68;3.15;;;;;;;17.42;71.31;101494.03;3588320;39;20070;-64
2022/08/27 01:04:58;;;;;;;4.70;3.03;;;;;;;16.69;71.13;101364.91;3592859;39;20056;-64
2022/08/27 01:07:30;;;;;;;10.45;3.10;;;;;;;17.35;71.23;101481.91;3590739;39;20417;-64
2022/08/27 01:10:03;;;;;;;4.88;2.92;;;;;;;17.30;71.92;101485.00;3592457;39;20048;-64
2022/08/27 01:12:33;;;;;;;6.40;3.08;;;;;;;17.22;72.07;101483.84;3591493;39;20055;-64
2022/08/27 01:15:03;;;;;;;6.78;3.13;;;;;;;17.18;71.22;101483.25;3592210;39;20062;-64
2022/08/27 01:17:31;;;;;;;5.30;3.13;;;;;;;17.12;72.18;101481.00;3589550;39;20067;-64
2022/08/27 01:20:04;;;;;;;5.57;3.17;;;;;;;17.06;72.09;101482.38;3591352;39;20483;-64
2022/08/27 01:22:56;;;;;;;6.97;3.53;;;;;;;17.03;73.00;101474.47;3591865;39;20111;-64
2022/08/27 01:25:25;;;;;;;6.82;3.40;;;;;;;16.94;72.47;101465.19;3591957;39;20052;-64
2022/08/27 01:27:57;;;;;;;9.50;3.30;;;;;;;16.82;73.00;101455.28;3593100;39;20055;-64
2022/08/27 01:30:23;;;;;;;6.38;3.50;;;;;;;16.94;72.54;101473.34;3591926;39;20425;-64
2022/08/27 01:32:49;;;;;;;7.28;3.47;;;;;;;16.93;73.29;101476.16;3593532;39;20059;-64
2022/08/27 01:35:19;;;;;;;5.95;3.67;;;;;;;16.84;73.36;101461.47;3589886;39;21142;-64
2022/08/27 01:37:50;;;;;;;5.90;3.30;;;;;;;16.90;73.02;101473.69;3590809;39;20059;-64
2022/08/27 01:40:18;;;;;;;8.35;3.63;;;;;;;16.89;72.83;101474.66;3590841;39;20231;-63
2022/08/27 01:42:50;;;;;;;7.55;3.72;;;;;;;16.86;72.88;101470.34;3590420;39;20052;-64
2022/08/27 01:45:27;;;;;;;6.38;3.53;;;;;;;16.83;73.68;101476.00;3591174;39;20060;-64
2022/08/27 01:47:53;;;;;;;8.25;4.00;;;;;;;16.56;73.17;101429.28;3592739;39;20052;-64
2022/08/27 01:50:34;;;;;;;9.77;4.30;;;;;;;16.77;73.61;101468.34;3590727;39;20112;-63
2022/08/27 01:53:04;;;;;;;8.20;4.05;;;;;;;16.73;73.56;101466.81;3589955;39;20043;-63
2022/08/27 01:55:30;;;;;;;7.25;4.28;;;;;;;16.70;73.44;101469.78;3590615;39;20145;-63
2022/08/27 01:57:56;;;;;;;7.03;3.97;;;;;;;16.68;74.05;101474.44;3589848;39;20044;-63
2022/08/27 02:00:28;;;;;;;7.20;3.95;;;;;;;16.67;74.23;101467.28;3589495;39;20124;-63
2022/08/27 02:02:56;;;;;;;8.88;4.30;;;;;;;16.64;73.77;101465.69;3591160;39;20063;-62
2022/08/27 02:05:23;;;;;;;6.93;4.00;;;;;;;16.61;74.32;101470.47;3586404;39;20553;-63
2022/08/27 02:07:49;;;;;;;7.78;4.40;;;;;;;16.61;73.90;101462.34;3587705;39;20070;-63
2022/08/27 02:10:24;;;;;;;5.95;3.60;;;;;;;16.60;74.03;101464.19;3589526;39;20142;-62
2022/08/27 02:12:51;;;;;;;7.53;4.10;;;;;;;16.45;73.84;101436.38;3589065;39;20085;-63
2022/08/27 02:15:18;;;;;;;8.18;4.00;;;;;;;16.55;74.49;101460.94;3589779;39;20063;-63
2022/08/27 02:17:45;;;;;;;6.95;3.95;;;;;;;16.53;74.04;101467.50;3590348;39;20060;-63
2022/08/27 02:20:13;;;;;;;7.75;4.22;;;;;;;16.48;74.09;101466.00;3590095;39;20137;-63
2022/08/27 02:22:40;;;;;;;7.00;4.00;;;;;;;16.45;74.60;101452.66;3589019;39;20059;-63
2022/08/27 02:25:09;;;;;;;7.55;4.57;;;;;;;16.41;74.04;101453.88;3588757;39;20059;-63
2022/08/27 02:27:35;;;;;;;6.85;4.30;;;;;;;16.38;74.86;101458.69;3590057;39;20067;-63
2022/08/27 02:30:01;;;;;;;7.38;4.40;;;;;;;16.36;74.58;101452.50;3588813;39;20410;-63
2022/08/27 02:32:27;;;;;;;8.52;4.13;;;;;;;16.32;74.27;101451.88;3588655;39;20056;-63
2022/08/27 02:34:54;;;;;;;7.22;4.32;;;;;;;16.30;74.74;101456.56;3586563;39;20060;-63
2022/08/27 02:37:19;;;;;;;6.05;4.53;;;;;;;16.29;74.86;101443.97;3589043;39;20047;-63
2022/08/27 02:39:45;;;;;;;12.10;4.68;;;;;;;16.28;74.13;101453.09;3589646;39;20070;-63
2022/08/27 02:42:10;;;;;;;6.95;4.07;;;;;;;16.26;75.19;101449.63;3591228;39;20063;-63
2022/08/27 02:44:36;;;;;;;8.05;4.75;;;;;;;16.24;74.99;101451.59;3588566;39;20051;-63
2022/08/27 02:47:02;;;;;;;7.10;4.50;;;;;;;16.24;75.07;101451.59;3587212;39;20324;-66
2022/08/27 02:49:29;;;;;;;7.22;4.82;;;;;;;16.23;75.32;101455.28;3589356;39;20056;-64
2022/08/27 02:51:56;;;;;;;6.90;4.65;;;;;;;16.24;75.20;101446.19;3587562;39;20294;-64
2022/08/27 02:54:24;;;;;;;7.50;4.85;;;;;;;16.24;74.86;101452.47;3588890;39;20405;-64
2022/08/27 02:56:53;;;;;;;8.85;5.50;;;;;;;16.24;74.31;101447.03;3589869;39;20066;-64
2022/08/27 02:59:19;;;;;;;7.70;4.60;;;;;;;16.28;75.47;101447.66;3588893;39;20395;-63
2022/08/27 03:01:45;;;;;;;8.40;4.80;;;;;;;16.31;74.28;101452.88;3587131;39;20170;-63
2022/08/27 03:04:11;;;;;;;8.95;4.95;;;;;;;16.32;74.47;101456.44;3588929;39;20056;-63
2022/08/27 03:06:37;;;;;;;8.98;4.80;;;;;;;16.33;75.26;101456.31;3591633;39;20356;-64
2022/08/27 03:09:03;;;;;;;8.18;4.80;;;;;;;16.37;75.00;101457.81;3588176;39;20060;-63
2022/08/27 03:11:30;;;;;;;10.38;5.50;;;;;;;16.39;75.11;101455.84;3589664;39;20058;-63
2022/08/27 03:13:57;;;;;;;7.30;4.90;;;;;;;16.41;74.86;101448.47;3581130;39;20059;-64
2022/08/27 03:16:24;;;;;;;8.00;5.07;;;;;;;16.41;74.66;101451.16;3589745;39;20095;-63
2022/08/27 03:18:51;;;;;;;8.27;6.00;;;;;;;16.43;74.71;101451.06;3587947;39;20409;-63
2022/08/27 03:21:22;;;;;;;7.68;5.28;;;;;;;16.42;74.59;101452.88;3588678;39;20573;-64
2022/08/27 03:23:49;;;;;;;8.73;5.43;;;;;;;16.39;74.51;101455.84;3588169;39;20111;-64
2022/08/27 03:26:16;;;;;;;10.07;5.10;;;;;;;16.38;74.48;101456.81;3587108;39;20406;-64
2022/08/27 03:28:43;;;;;;;6.38;4.47;;;;;;;16.37;74.54;101452.41;3586640;39;20422;-62
2022/08/27 03:31:25;;;;;;;10.38;5.35;;;;;;;16.37;74.98;101452.41;3588908;39;20055;-63
2022/08/27 03:33:58;;;;;;;7.38;5.30;;;;;;;16.36;74.83;101456.06;3588442;39;20050;-63
2022/08/27 03:36:26;;;;;;;8.38;5.25;;;;;;;16.38;74.61;101454.13;3590436;39;20132;-63
2022/08/27 03:38:53;;;;;;;10.32;5.30;;;;;;;16.41;75.25;101448.47;3587939;39;20063;-63
2022/08/27 03:41:19;;;;;;;7.47;4.78;;;;;;;16.42;74.57;101452.03;3588927;39;20206;-63
2022/08/27 03:43:46;;;;;;;10.70;5.43;;;;;;;16.44;74.63;101453.66;3588555;39;20150;-63
2022/08/27 03:46:12;;;;;;;13.65;4.95;;;;;;;16.45;74.38;101455.38;3587384;39;20093;-62
2022/08/27 03:48:38;;;;;;;7.75;5.22;;;;;;;16.45;74.45;101454.50;3588844;39;20065;-62
2022/08/27 03:51:10;;;;;;;6.53;5.20;;;;;;;16.46;74.60;101459.84;3588315;39;20105;-62
2022/08/27 03:53:38;;;;;;;12.63;5.53;;;;;;;16.47;73.60;101460.69;3589419;39;20054;-62
2022/08/27 03:56:05;;;;;;;8.05;5.32;;;;;;;16.51;74.27;101458.59;3589734;39;20068;-63
2022/08/27 03:58:33;;;;;;;7.40;5.38;;;;;;;16.53;74.13;101451.22;3589618;39;20047;-62
2022/08/27 04:01:00;;;;;;;11.57;5.53;;;;;;;16.49;74.67;101445.13;3589415;39;20051;-62
2022/08/27 04:03:26;;;;;;;8.52;5.60;;;;;;;16.60;74.66;101455.19;3590358;39;20059;-62
2022/08/27 04:05:56;;;;;;;11.77;5.20;;;;;;;16.52;74.30;101433.19;3589543;39;20222;-61
2022/08/27 04:08:23;;;;;;;9.60;5.40;;;;;;;16.57;74.14;101447.28;3588902;39;20070;-61
2022/08/27 04:10:50;;;;;;;12.32;5.63;;;;;;;16.55;74.52;101460.94;3586757;39;20059;-61
2022/08/27 04:13:17;;;;;;;8.77;5.80;;;;;;;16.51;74.66;101456.75;3589400;39;20062;-61
2022/08/27 04:15:46;;;;;;;8.93;5.38;;;;;;;16.48;74.31;101460.56;3588455;39;20059;-61
2022/08/27 04:18:15;;;;;;;9.95;5.43;;;;;;;16.47;73.98;101453.41;3588873;39;20066;-61
2022/08/27 04:20:45;;;;;;;10.68;5.53;;;;;;;16.45;74.21;101457.22;3588357;39;20125;-62
2022/08/27 04:23:12;;;;;;;11.00;5.55;;;;;;;16.42;74.93;101447.47;3587930;39;20413;-62
2022/08/27 04:25:40;;;;;;;10.90;5.57;;;;;;;16.42;74.37;101436.59;3588756;39;20062;-61
2022/08/27 04:28:07;;;;;;;8.73;5.45;;;;;;;16.42;74.66;101450.19;3586147;39;20059;-61
2022/08/27 04:30:38;;;;;;;8.10;5.28;;;;;;;16.40;74.50;101452.16;3586489;39;20068;-61
2022/08/27 04:33:04;;;;;;;12.32;5.70;;;;;;;16.41;74.48;101451.16;3588667;39;20291;-61
2022/08/27 04:35:29;;;;;;;7.72;5.20;;;;;;;16.33;74.50;101445.44;3588863;39;20059;-61
2022/08/27 04:37:56;;;;;;;11.05;5.65;;;;;;;16.38;75.24;101448.69;3588283;39;20368;-61
2022/08/27 04:41:18;;;;;;;10.45;5.43;;;;;;;16.37;74.63;101452.41;3588998;39;20071;-61
2022/08/27 04:43:07;;;;;;;10.85;5.45;;;;;;;16.39;74.47;101463.13;3588434;39;20045;-62
2022/08/27 04:45:33;;;;;;;10.63;5.82;;;;;;;16.35;75.00;101462.50;3588991;39;20493;-61
2022/08/27 04:47:58;;;;;;;10.90;5.82;;;;;;;16.28;74.67;101461.22;3588868;39;20145;-62
2022/08/27 04:50:24;;;;;;;9.43;5.57;;;;;;;16.26;75.50;101460.47;3587628;39;20067;-61
2022/08/27 04:52:49;;;;;;;10.73;6.22;;;;;;;16.28;75.72;101463.94;3587111;39;20044;-61
2022/08/27 04:55:15;;;;;;;9.68;5.90;;;;;;;16.32;75.84;101465.44;3590268;39;20494;-63
2022/08/27 04:57:41;;;;;;;9.30;5.60;;;;;;;16.34;75.82;101463.47;3588214;39;20170;-62
2022/08/27 05:00:08;;;;;;;8.30;5.55;;;;;;;16.34;75.75;101449.91;3580236;40;20341;-62
2022/08/27 05:02:33;;;;;;;8.95;5.43;;;;;;;16.48;75.45;101466.00;3590672;39;20071;-62
2022/08/27 05:04:59;;;;;;;8.88;5.90;;;;;;;16.56;75.08;101467.28;3589107;39;20240;-62
2022/08/27 05:07:24;;;;;;;8.60;5.35;;;;;;;16.60;74.63;101458.75;3588201;39;20156;-62
2022/08/27 05:09:51;;;;;;;10.15;6.43;;;;;;;16.64;75.25;101470.25;3586685;39;20068;-62
2022/08/27 05:12:16;;;;;;;11.30;5.82;;;;;;;16.67;74.59;101460.00;3587839;39;20043;-62
2022/08/27 05:14:42;;;;;;;11.73;5.75;;;;;;;16.65;74.47;101455.69;3588014;39;20055;-62
2022/08/27 05:17:07;;;;;;;10.10;5.90;;;;;;;16.75;75.01;101462.19;3586477;39;20048;-62
2022/08/27 05:19:33;;;;;;;9.48;6.28;;;;;;;16.75;74.64;101469.44;3589185;39;20060;-62
2022/08/27 05:21:58;;;;;;;10.63;6.30;;;;;;;16.76;74.47;101463.91;3588178;39;20063;-62
2022/08/27 05:24:24;;;;;;;11.25;6.18;;;;;;;16.66;75.34;101441.13;3587615;39;20298;-62
2022/08/27 05:26:50;;;;;;;9.65;6.05;;;;;;;16.89;75.01;101469.25;3580780;39;20056;-62
2022/08/27 05:29:16;;;;;;;11.55;6.10;;;;;;;16.91;75.36;101470.00;3588281;39;20424;-62
2022/08/27 05:31:42;;;;;;;8.10;5.72;;;;;;;16.98;74.26;101473.97;3588970;39;20178;-62
2022/08/27 05:34:09;;;;;;;9.27;6.10;;;;;;;17.03;74.39;101469.03;3586766;39;20086;-62
2022/08/27 05:36:35;;;;;;;8.23;6.30;;;;;;;17.04;74.59;101478.06;3590502;39;20129;-62
2022/08/27 05:39:04;;;;;;;9.25;6.38;;;;;;;17.08;74.87;101480.38;3579502;39;20562;-62
2022/08/27 05:41:32;;;;;;;15.10;6.43;;;;;;;17.13;73.87;101478.19;3588424;39;20068;-62
2022/08/27 05:44:03;;;;;;;9.63;6.15;;;;;;;17.20;73.91;101478.56;3587174;39;20592;-62
2022/08/27 05:46:29;;;;;;;10.13;6.85;;;;;;;17.22;73.97;101481.13;3589657;39;20137;-62
2022/08/27 05:49:00;;;;;;;8.13;6.38;;;;;;;17.28;74.39;101480.66;3587786;39;20103;-62
2022/08/27 05:51:32;;;;;;;10.48;5.95;;;;;;;17.29;73.37;101475.13;3589256;39;20063;-62
2022/08/27 05:54:17;;;;;;;7.78;6.30;;;;;;;17.44;73.34;101485.72;3586593;39;20060;-62
2022/08/27 05:56:44;;;;;;;10.75;5.93;;;;;;;17.42;73.28;101460.53;3589855;39;20072;-62
2022/08/27 06:01:57;;;;;;;10.25;6.10;;;;;;;17.44;72.77;101453.13;3589682;39;20117;-62
2022/08/27 06:04:24;;;;;;;10.98;6.00;;;;;;;17.72;72.48;101479.78;3588133;39;20048;-62
2022/08/27 06:06:52;;;;;;;9.60;5.88;;;;;;;17.64;72.79;101474.13;3588998;39;20425;-62
2022/08/27 06:09:23;;;;;;;10.65;5.90;;;;;;;17.80;71.58;101488.22;3590484;39;20082;-62
2022/08/27 06:11:49;;;;;;;8.85;6.25;;;;;;;17.85;72.39;101485.13;3587567;39;20047;-62
2022/08/27 06:14:15;;;;;;;15.43;6.20;;;;;;;17.88;71.76;101503.03;3588810;39;20070;-62
2022/08/27 06:16:41;;;;;;;9.82;5.90;;;;;;;17.94;71.96;101499.81;3589487;39;20074;-62
2022/08/27 06:19:11;;;;;;;12.40;6.18;;;;;;;18.02;71.91;101502.78;3590148;39;20088;-62
2022/08/27 06:21:38;;;;;;;9.23;5.60;;;;;;;18.05;70.85;101497.97;3589663;39;20047;-62
2022/08/27 06:24:04;;;;;;;8.18;5.00;;;;;;;18.09;70.83;101499.44;3590521;39;20592;-62
2022/08/27 06:26:30;;;;;;;9.13;5.30;;;;;;;18.15;70.82;101502.66;3590402;39;20064;-62
2022/08/27 06:29:02;;;;;;;8.45;5.75;;;;;;;18.17;71.84;101501.50;3590444;39;20055;-62
2022/08/27 06:31:27;;;;;;;10.55;5.63;;;;;;;18.18;71.22;101508.69;3593312;39;20422;-62
2022/08/27 06:34:00;;;;;;;10.13;5.50;;;;;;;18.25;70.93;101495.44;3589412;39;20051;-62
2022/08/27 06:36:26;;;;;;;8.18;5.90;;;;;;;18.28;70.94;101498.75;3591080;39;20091;-62
2022/08/27 06:38:53;;;;;;;9.75;6.05;;;;;;;18.30;70.70;101499.50;3591469;39;20054;-62
2022/08/27 06:41:24;;;;;;;11.38;6.20;;;;;;;18.31;70.00;101501.22;3591341;39;20047;-62
2022/08/27 06:43:51;;;;;;;11.60;6.50;;;;;;;18.28;70.54;101498.75;3589947;39;20100;-62
2022/08/27 06:46:21;;;;;;;11.50;6.50;;;;;;;18.24;70.93;101510.91;3589702;39;20391;-62
2022/08/27 06:48:52;;;;;;;10.90;5.88;;;;;;;18.26;70.93;101511.63;3590472;39;20067;-62
2022/08/27 06:51:24;;;;;;;12.38;6.55;;;;;;;18.08;71.04;101462.34;3589921;39;20469;-62
2022/08/27 06:53:53;;;;;;;10.00;5.60;;;;;;;18.37;70.10;101491.69;3589072;39;20067;-62
2022/08/27 06:56:20;;;;;;;11.25;6.28;;;;;;;18.41;71.41;101497.72;3591597;39;20052;-62
2022/08/27 06:58:47;;;;;;;10.07;5.85;;;;;;;18.26;70.55;101451.75;3588787;39;20060;-62
2022/08/27 07:01:23;;;;;;;11.75;5.57;;;;;;;18.54;69.95;101498.41;3588847;39;20106;-62
2022/08/27 07:03:49;;;;;;;9.23;5.47;;;;;;;18.57;70.48;101492.72;3588441;39;20348;-62
2022/08/27 07:06:16;;;;;;;8.27;5.03;;;;;;;18.62;69.04;101495.91;3590705;39;20051;-62
2022/08/27 07:08:44;;;;;;;7.03;4.85;;;;;;;18.67;69.28;101498.25;3589454;39;20055;-63
2022/08/27 07:11:12;;;;;;;8.98;5.88;;;;;;;18.68;68.46;101499.94;3589709;39;20055;-62
2022/08/27 07:13:38;;;;;;;10.13;6.03;;;;;;;18.69;69.18;101497.13;3588324;39;20048;-62
2022/08/27 07:16:12;;;;;;;9.68;5.13;;;;;;;18.74;69.09;101504.91;3589584;39;20062;-62
2022/08/27 07:18:39;;;;;;;11.90;5.63;;;;;;;18.75;68.54;101502.06;3590690;39;20056;-61
2022/08/27 07:21:06;;;;;;;9.63;5.40;;;;;;;18.84;68.76;101505.88;3590312;39;20326;-62
2022/08/27 07:23:35;;;;;;;9.73;5.13;;;;;;;18.96;68.71;101498.47;3589042;39;20079;-62
2022/08/27 07:26:08;;;;;;;10.25;6.32;;;;;;;19.00;68.36;101502.69;3589604;39;20062;-62
2022/08/27 07:28:33;;;;;;;11.45;5.53;;;;;;;19.01;68.65;101501.69;3589912;39;20250;-62
2022/08/27 07:30:59;;;;;;;10.48;5.18;;;;;;;19.14;67.99;101502.34;3588624;39;20421;-62
2022/08/27 07:33:24;;;;;;;7.65;4.47;;;;;;;19.24;67.95;101507.84;3589143;39;20055;-62
2022/08/27 07:35:50;;;;;;;8.43;4.38;;;;;;;19.29;65.85;101504.72;3587592;39;20109;-62
2022/08/27 07:38:16;;;;;;;7.68;4.68;;;;;;;19.35;65.93;101520.56;3588640;39;20056;-62
2022/08/27 07:40:42;;;;;;;7.25;4.57;;;;;;;19.38;65.75;101523.00;3589273;39;20055;-62
2022/08/27 07:45:55;;;;;;;9.40;4.30;;;;;;;19.40;64.33;101513.66;3590270;39;20058;-62
2022/08/27 07:48:24;;;;;;;10.73;4.10;;;;;;;19.40;63.82;101519.13;3590509;39;20072;-62
2022/08/27 07:50:52;;;;;;;6.85;3.90;;;;;;;19.44;64.12;101525.16;3588117;39;20056;-62
2022/08/27 07:53:19;;;;;;;9.25;4.22;;;;;;;19.46;63.92;101523.19;3590695;39;20382;-62
2022/08/27 07:55:45;;;;;;;5.10;4.03;;;;;;;19.23;64.49;101485.19;3588322;39;20121;-62
2022/08/27 07:58:13;;;;;;;7.90;4.90;;;;;;;19.43;64.29;101518.00;3591125;39;20085;-62
2022/08/27 08:00:44;;;;;;;9.82;4.75;;;;;;;19.49;64.37;101522.91;3587820;39;20314;-62
2022/08/27 08:03:12;;;;;;;5.57;3.88;;;;;;;19.65;64.05;101519.72;3589291;39;20071;-62
2022/08/27 08:05:44;;;;;;;8.18;4.60;;;;;;;19.85;64.55;101517.91;3591369;39;20136;-65
2022/08/27 08:08:10;;;;;;;6.72;4.68;;;;;;;20.00;63.55;101519.25;3585567;39;20436;-65
2022/08/27 08:10:38;;;;;;;7.65;4.35;;;;;;;20.20;63.14;101522.03;3589429;39;20422;-65
2022/08/27 08:13:04;;;;;;;6.47;4.28;;;;;;;20.43;62.89;101518.06;3586397;39;20536;-65
2022/08/27 08:15:30;;;;;;;8.82;4.43;;;;;;;20.61;61.78;101521.88;3589717;39;20047;-65
2022/08/27 08:17:56;;;;;;;9.27;4.13;;;;;;;20.78;61.14;101528.47;3587906;39;20326;-65
2022/08/27 08:20:22;;;;;;;6.22;3.53;;;;;;;20.96;59.89;101525.00;3588846;39;20156;-65
2022/08/27 08:22:47;;;;;;;8.13;3.70;;;;;;;21.25;59.07;101519.47;3587434;39;20056;-65
2022/08/27 08:25:14;;;;;;;8.13;3.72;;;;;;;21.43;58.21;101528.66;3588787;39;20059;-65
2022/08/27 08:27:41;;;;;;;8.90;3.75;;;;;;;21.59;56.68;101517.09;3590539;39;20145;-65
2022/08/27 08:30:09;;;;;;;5.63;3.00;;;;;;;21.88;56.50;101535.28;3587355;39;20170;-65
2022/08/27 08:32:36;;;;;;;7.32;3.35;;;;;;;22.00;54.53;101531.31;3588920;39;20064;-65
2022/08/27 08:35:03;;;;;;;5.90;3.10;;;;;;;22.25;54.38;101535.25;3587481;39;20895;-65
2022/08/27 08:37:29;;;;;;;5.13;2.95;;;;;;;22.42;54.77;101536.28;3588576;39;20055;-65
2022/08/27 08:39:55;;;;;;;7.10;3.28;;;;;;;22.59;52.93;101546.41;3585151;39;20060;-65
2022/08/27 08:42:43;;;;;;;6.30;3.22;;;;;;;22.67;53.21;101526.44;3586351;39;20072;-65
2022/08/27 08:45:17;;;;;;;13.45;8.98;;;;;;;22.79;52.69;101530.66;3586197;39;20295;-65
2022/08/27 08:48:03;;;;;;;7.43;3.50;;;;;;;22.95;51.60;101535.47;3587911;39;20054;-65
2022/08/27 08:51:00;;;;;;;5.60;3.80;;;;;;;23.13;51.67;101536.31;3586970;39;20060;-65
2022/08/27 08:53:53;;;;;;;6.70;3.38;;;;;;;23.20;50.57;101527.44;3586094;39;20058;-65
2022/08/27 08:56:48;;;;;;;7.22;3.40;;;;;;;23.39;49.91;101530.81;3586831;39;20088;-66
2022/08/27 08:59:28;;;;;;;7.70;3.20;;;;;;;23.66;49.68;101537.19;3587730;39;20063;-65
2022/08/27 09:01:53;;;;;;;7.00;3.17;;;;;;;23.81;48.70;101529.19;3586318;39;20363;-65
2022/08/27 09:04:24;;;;;;;9.27;3.20;;;;;;;23.79;48.96;101532.13;3588139;39;20059;-65
2022/08/27 09:07:02;;;;;;;9.50;3.38;;;;;;;24.07;49.25;101535.50;3589221;39;20052;-65
2022/08/27 09:10:10;;;;;;;6.10;2.67;;;;;;;24.22;47.70;101538.47;3588846;39;20051;-65
2022/08/27 09:12:35;;;;;;;5.05;2.67;;;;;;;24.40;46.35;101541.09;3588439;39;20373;-65
2022/08/27 09:15:19;;;;;;;3.75;2.60;;;;;;;24.64;44.90;101537.56;3586747;39;20074;-65
2022/08/27 09:17:46;;;;;;;3.90;2.05;;;;;;;24.71;45.70;101533.13;3588651;39;20305;-65
2022/08/27 09:20:18;;;;;;;8.85;2.30;;;;;;;24.62;45.03;101547.03;3588194;39;20060;-65
2022/08/27 09:23:03;;;;;;;10.15;2.17;;;;;;;24.59;46.18;101547.38;3586392;39;20056;-65
2022/08/27 09:25:36;;;;;;;3.90;2.22;;;;;;;24.59;45.24;101539.97;3590503;39;20290;-65
2022/08/27 09:31:09;;;;;;;4.03;2.30;;;;;;;24.50;44.23;101539.09;3589409;39;20059;-65
2022/08/27 09:33:36;;;;;;;6.50;2.00;;;;;;;24.40;44.14;101538.34;3587242;39;20314;-65
2022/08/27 09:36:13;;;;;;;5.15;2.10;;;;;;;24.29;44.65;101539.53;3589517;39;20160;-65
2022/08/27 09:38:52;;;;;;;3.42;2.20;;;;;;;24.21;44.72;101531.25;3589723;39;20305;-65
2022/08/27 09:41:27;;;;;;;4.03;1.83;;;;;;;23.95;44.73;101492.03;3588322;39;20330;-65
2022/08/27 09:44:06;;;;;;;6.40;1.77;;;;;;;24.32;44.71;101533.69;3588378;39;20074;-64
2022/08/27 09:46:32;;;;;;;3.33;2.38;;;;;;;24.27;44.59;101535.22;3591695;39;20075;-65
2022/08/27 09:49:12;;;;;;;5.88;2.08;;;;;;;24.02;44.61;101545.28;3591020;39;20410;-64
2022/08/27 09:51:43;;;;;;;3.22;1.80;;;;;;;24.00;45.09;101539.06;3589045;39;20104;-65
2022/08/27 09:54:22;;;;;;;5.18;2.20;;;;;;;24.31;44.95;101537.47;3590831;39;20064;-65
2022/08/27 09:56:49;;;;;;;5.45;2.08;;;;;;;24.66;45.08;101540.16;3589511;39;20309;-65
2022/08/27 09:59:30;;;;;;;6.15;2.05;;;;;;;24.93;43.46;101547.22;3582685;40;20064;-65
2022/08/27 10:02:20;;;;;;;4.20;2.28;;;;;;;25.21;43.07;101545.88;3590074;39;20059;-65
2022/08/27 10:04:51;;;;;;;5.47;2.20;;;;;;;25.38;41.69;101512.84;3590269;39;20047;-65
2022/08/27 10:07:55;;;;;;;5.18;2.10;;;;;;;25.80;41.75;101547.47;3588496;39;20510;-65
2022/08/27 10:10:41;;;;;;;3.58;2.10;;;;;;;25.54;42.50;101540.31;3589778;39;20567;-65
2022/08/27 10:13:30;;;;;;;3.20;1.92;;;;;;;25.42;41.29;101545.31;3590055;39;20051;-65
2022/08/27 10:16:40;;;;;;;2.40;1.70;;;;;;;25.24;42.23;101539.16;3588159;39;20092;-65
2022/08/27 10:19:31;;;;;;;4.13;2.17;;;;;;;25.33;41.29;101527.09;3590110;39;20048;-65
2022/08/27 10:22:31;;;;;;;2.63;2.00;;;;;;;25.43;41.46;101532.41;3588337;39;20067;-65
2022/08/27 10:25:15;;;;;;;7.20;2.42;;;;;;;25.60;41.09;101534.09;3589576;39;20402;-66
2022/08/27 10:28:37;;;;;;;4.07;2.08;;;;;;;25.63;40.23;101528.25;3591563;39;20052;-65
2022/08/27 10:31:32;;;;;;;3.40;2.20;;;;;;;25.45;40.88;101527.59;3586795;39;20314;-67
2022/08/27 10:34:37;;;;;;;3.58;2.30;;;;;;;25.28;40.89;101529.53;3585668;39;20096;-65
2022/08/27 10:37:33;;;;;;;4.93;2.33;;;;;;;25.28;41.55;101523.16;3588668;39;20067;-65
2022/08/27 10:41:02;;;;;;;4.28;2.13;;;;;;;25.22;42.14;101517.31;3588395;39;20148;-65
2022/08/27 10:44:03;;;;;;;5.40;2.30;;;;;;;25.18;41.22;101517.81;3589804;39;20060;-65
2022/08/27 10:46:46;;;;;;;4.85;2.30;;;;;;;25.07;41.57;101518.16;3592986;39;20062;-65
2022/08/27 10:50:33;;;;;;;5.25;1.80;;;;;;;24.76;41.90;101524.34;3592466;39;20327;-65
2022/08/27 10:53:27;;;;;;;4.07;2.30;;;;;;;24.39;42.61;101511.03;3540438;40;20346;-63
2022/08/27 10:56:38;;;;;;;5.00;2.30;;;;;;;24.25;43.29;101518.03;3542235;40;20388;-64
2022/08/27 10:59:55;;;;;;;6.07;2.28;;;;;;;24.07;44.79;101515.41;3575968;39;20121;-64
2022/08/27 11:02:45;;;;;;;4.57;2.30;;;;;;;23.83;44.19;101522.53;3590448;39;20052;-64
2022/08/27 11:05:30;;;;;;;2.83;1.90;;;;;;;23.60;44.77;101521.34;3590870;39;20051;-63
2022/08/27 11:08:16;;;;;;;6.97;2.70;;;;;;;23.48;46.00;101519.91;3590480;39;20309;-63
2022/08/27 11:10:49;;;;;;;3.60;2.00;;;;;;;23.52;45.71;101524.03;3588766;39;20092;-65
2022/08/27 11:13:31;;;;;;;3.65;1.95;;;;;;;23.57;48.19;101521.69;3591270;39;20056;-65
2022/08/27 11:16:05;;;;;;;6.38;1.85;;;;;;;23.57;46.40;101508.81;3593090;39;20075;-64
2022/08/27 11:18:44;;;;;;;6.85;2.35;;;;;;;23.66;45.75;101508.84;3593795;39;20056;-65
2022/08/27 11:21:33;;;;;;;5.05;2.25;;;;;;;23.77;45.03;101514.94;3591446;39;20059;-65
2022/08/27 11:24:51;;;;;;;2.50;1.63;;;;;;;23.73;46.52;101516.31;3581298;39;20055;-65
2022/08/27 11:27:25;;;;;;;4.68;1.60;;;;;;;23.83;45.31;101516.19;3576919;39;20384;-65
2022/08/27 11:30:16;;;;;;;3.80;1.80;;;;;;;23.85;45.55;101512.25;3590382;39;20047;-64
2022/08/27 11:33:45;;;;;;;3.58;1.88;;;;;;;23.99;45.67;101510.75;3570880;39;20063;-66
2022/08/27 11:37:04;;;;;;;2.83;1.95;;;;;;;24.15;44.49;101509.94;3581457;39;20063;-65
2022/08/27 11:40:00;;;;;;;2.88;1.50;;;;;;;24.26;44.61;101506.00;3574149;39;20054;-65
2022/08/27 11:42:54;;;;;;;4.20;1.77;;;;;;;24.43;43.13;101506.97;3589788;39;20044;-65
2022/08/27 11:45:37;;;;;;;17.88;2.63;;;;;;;24.50;43.49;101497.84;3588883;39;20122;-66
2022/08/27 11:48:27;;;;;;;4.35;1.85;;;;;;;24.59;43.44;101509.72;3586682;39;20048;-65
2022/08/27 11:51:03;;;;;;;3.47;1.58;;;;;;;24.65;43.37;101505.44;3589007;39;20068;-65
2022/08/27 11:53:56;;;;;;;5.55;1.63;;;;;;;24.67;43.00;101508.88;3589240;39;20051;-65
2022/08/27 11:56:42;;;;;;;5.28;3.45;;;;;;;24.60;43.13;101502.34;3589765;39;20051;-64
2022/08/27 11:59:32;;;;;;;4.43;1.80;;;;;;;24.61;42.66;101504.03;3590319;39;20060;-65